KAIZ/AIZ METAR and TAF weather

Enter ICAO airport designator
Station Type Date Time Source
KAIZ METAR 2020/01/19 02:56 UTC NOAA

KAIZ 190256Z AUTO 29011G17KT 10SM CLR M01/M11 A3035 RMK AO2 SLP283 T10111106 51012 FZRANO


Station Type Date Time Source
KAIZ Decoded METAR 2020/01/19 02:56 UTC NOAA

Kaiser Lake Ozark, Lee C Fine Memorial Airport, MO, United States (KAIZ) 38-06N 092-33W
Jan 18, 2020 - 09:56 PM EST / 2020.01.19 0256 UTC
Wind: from the WNW (290 degrees) at 13 MPH (11 KT) gusting to 20 MPH (17 KT):0
Visibility: 10 mile(s):0
Sky conditions: clear
Temperature: 30.0 F (-1.1 C)
Windchill: 19 F (-7 C):1
Dew Point: 12.9 F (-10.6 C)
Relative Humidity: 48%
Pressure (altimeter): 30.35 in. Hg (1027 hPa)
Pressure tendency: 0.04 inches (1.2 hPa) higher than three hours ago
ob: KAIZ 190256Z AUTO 29011G17KT 10SM CLR M01/M11 A3035 RMK AO2 SLP283 T10111106 51012 FZRANO
cycle: 3

Station Type Date Time Source
KAIZ TAF UTC NOAA

Error!

Example: see airport list